createdAt,value
2017-03-22T00:00:39.300Z,0
2017-03-22T00:01:39.275Z,0
2017-03-22T00:02:39.297Z,0
2017-03-22T00:03:39.516Z,0
2017-03-22T00:04:38.877Z,0
2017-03-22T00:05:38.807Z,0
2017-03-22T00:06:39.160Z,0
2017-03-22T00:07:39.077Z,0
2017-03-22T00:08:39.119Z,0
2017-03-22T00:09:39.042Z,0
2017-03-22T00:10:39.308Z,0
2017-03-22T00:11:39.305Z,0
2017-03-22T00:12:38.996Z,0
2017-03-22T00:13:38.976Z,0
2017-03-22T00:14:38.928Z,0
2017-03-22T00:15:38.955Z,0
2017-03-22T00:16:39.287Z,0
2017-03-22T00:17:38.847Z,0
2017-03-22T00:18:39.125Z,0
2017-03-22T00:19:38.790Z,0
2017-03-22T00:20:39.169Z,0
2017-03-22T00:21:38.591Z,0
2017-03-22T00:22:39.027Z,0
2017-03-22T00:23:38.505Z,0
2017-03-22T00:24:38.716Z,0
2017-03-22T00:25:38.107Z,0
2017-03-22T00:26:38.685Z,0
2017-03-22T00:27:38.915Z,0
2017-03-22T00:28:38.675Z,0
2017-03-22T00:29:38.862Z,0
2017-03-22T00:30:38.527Z,0
2017-03-22T00:31:38.196Z,0
2017-03-22T00:32:38.476Z,0
2017-03-22T00:33:38.766Z,0
2017-03-22T00:34:38.115Z,0
2017-03-22T00:35:38.413Z,0
2017-03-22T00:36:38.696Z,0
2017-03-22T00:37:38.367Z,0
2017-03-22T00:38:38.346Z,0
2017-03-22T00:39:38.616Z,0
2017-03-22T00:40:38.345Z,0
2017-03-22T00:41:37.647Z,0
2017-03-22T00:42:38.562Z,0
2017-03-22T00:43:38.538Z,0
2017-03-22T00:44:38.502Z,0
2017-03-22T00:45:37.876Z,0
2017-03-22T00:46:37.838Z,0
2017-03-22T00:47:38.138Z,0
2017-03-22T00:48:37.807Z,0
2017-03-22T00:49:38.087Z,0
2017-03-22T00:50:38.354Z,0
2017-03-22T00:51:38.047Z,0
2017-03-22T00:52:38.319Z,0
2017-03-22T00:53:37.996Z,0
2017-03-22T00:54:37.980Z,0
2017-03-22T00:55:38.242Z,0
2017-03-22T00:56:37.917Z,0
2017-03-22T00:57:38.207Z,0
2017-03-22T00:58:37.896Z,0
2017-03-22T00:59:37.874Z,0
2017-03-22T01:00:38.139Z,0
2017-03-22T01:01:37.807Z,0
2017-03-22T01:02:38.106Z,0
2017-03-22T01:03:37.767Z,0
2017-03-22T01:04:37.456Z,0
2017-03-22T01:05:37.704Z,0
2017-03-22T01:06:37.998Z,0
2017-03-22T01:07:37.949Z,0
2017-03-22T01:08:38.008Z,0
2017-03-22T01:09:37.926Z,0
2017-03-22T01:10:37.606Z,0
2017-03-22T01:11:37.579Z,0
2017-03-22T01:12:37.550Z,0
2017-03-22T01:13:37.526Z,0
2017-03-22T01:14:37.806Z,0
2017-03-22T01:15:37.494Z,0
2017-03-22T01:16:37.765Z,0
2017-03-22T01:17:37.446Z,0
2017-03-22T01:18:37.097Z,0
2017-03-22T01:19:37.704Z,0
2017-03-22T01:20:37.710Z,0
2017-03-22T01:21:37.655Z,0
2017-03-22T01:22:37.326Z,0
2017-03-22T01:23:37.586Z,0
2017-03-22T01:24:37.646Z,0
2017-03-22T01:25:37.546Z,0
2017-03-22T01:26:37.526Z,0
2017-03-22T01:27:37.200Z,0
2017-03-22T01:28:36.866Z,0
2017-03-22T01:29:37.156Z,0
2017-03-22T01:30:37.437Z,0
2017-03-22T01:31:37.496Z,0
2017-03-22T01:32:37.385Z,0
2017-03-22T01:33:37.071Z,0
2017-03-22T01:34:37.033Z,0
2017-03-22T01:35:37.305Z,0
2017-03-22T01:36:37.321Z,0
2017-03-22T01:37:36.972Z,0
2017-03-22T01:38:36.977Z,0
2017-03-22T01:39:36.905Z,0
2017-03-22T01:40:37.236Z,0
2017-03-22T01:41:36.849Z,0
2017-03-22T01:42:37.196Z,0
2017-03-22T01:43:37.157Z,0
2017-03-22T01:44:37.147Z,0
2017-03-22T01:45:37.183Z,0
2017-03-22T01:46:37.045Z,0
2017-03-22T01:47:36.727Z,0
2017-03-22T01:48:36.405Z,0
2017-03-22T01:49:36.776Z,0
2017-03-22T01:50:36.648Z,0
2017-03-22T01:51:36.929Z,0
2017-03-22T01:52:36.916Z,0
2017-03-22T01:53:36.956Z,0
2017-03-22T01:54:37.017Z,0
2017-03-22T01:55:36.897Z,0
2017-03-22T01:56:36.814Z,0
2017-03-22T01:57:36.916Z,0
2017-03-22T01:58:36.839Z,0
2017-03-22T01:59:36.418Z,0
2017-03-22T02:00:36.761Z,0
2017-03-22T02:01:36.790Z,0
2017-03-22T02:02:36.065Z,0
2017-03-22T02:03:36.365Z,0
2017-03-22T02:04:36.327Z,0
2017-03-22T02:05:36.386Z,0
2017-03-22T02:06:35.949Z,0
2017-03-22T02:07:36.573Z,0
2017-03-22T02:08:36.536Z,0
2017-03-22T02:09:36.545Z,0
2017-03-22T02:10:36.166Z,0
2017-03-22T02:11:35.548Z,0
2017-03-22T02:12:36.118Z,0
2017-03-22T02:13:35.785Z,0
2017-03-22T02:14:36.066Z,0
2017-03-22T02:15:36.366Z,0
2017-03-22T02:16:36.033Z,0
2017-03-22T02:17:35.717Z,0
2017-03-22T02:18:36.286Z,0
2017-03-22T02:19:36.255Z,0
2017-03-22T02:20:36.227Z,0
2017-03-22T02:21:35.895Z,0
2017-03-22T02:22:35.874Z,0
2017-03-22T02:23:36.163Z,0
2017-03-22T02:24:35.831Z,0
2017-03-22T02:25:35.826Z,0
2017-03-22T02:26:35.481Z,0
2017-03-22T02:27:35.766Z,0
2017-03-22T02:28:35.757Z,0
2017-03-22T02:29:35.726Z,0
2017-03-22T02:30:35.987Z,0
2017-03-22T02:31:35.654Z,0
2017-03-22T02:32:35.705Z,0
2017-03-22T02:33:35.916Z,0
2017-03-22T02:34:35.916Z,0
2017-03-22T02:35:35.884Z,0
2017-03-22T02:36:35.546Z,0
2017-03-22T02:37:35.827Z,0
2017-03-22T02:38:35.806Z,0
2017-03-22T02:39:35.546Z,0
2017-03-22T02:40:35.758Z,0
2017-03-22T02:41:35.727Z,0
2017-03-22T02:42:35.707Z,0
2017-03-22T02:43:35.686Z,0
2017-03-22T02:44:35.039Z,0
2017-03-22T02:45:35.624Z,0
2017-03-22T02:46:35.592Z,0
2017-03-22T02:47:34.974Z,0
2017-03-22T02:48:35.547Z,0
2017-03-22T02:49:35.306Z,0
2017-03-22T02:50:35.516Z,0
2017-03-22T02:51:35.476Z,0
2017-03-22T02:52:35.157Z,0
2017-03-22T02:53:35.445Z,0
2017-03-22T02:54:35.114Z,0
2017-03-22T02:55:35.391Z,0
2017-03-22T02:56:35.359Z,0
2017-03-22T02:57:34.827Z,0
2017-03-22T02:58:35.337Z,0
2017-03-22T02:59:34.986Z,0
2017-03-22T03:00:34.943Z,0
2017-03-22T03:01:34.924Z,0
2017-03-22T03:02:34.688Z,0
2017-03-22T03:03:35.186Z,0
2017-03-22T03:04:35.181Z,0
2017-03-22T03:05:34.845Z,0
2017-03-22T03:06:35.105Z,0
2017-03-22T03:07:35.097Z,0
2017-03-22T03:08:35.151Z,0
2017-03-22T03:09:34.734Z,0
2017-03-22T03:10:34.718Z,0
2017-03-22T03:11:34.993Z,0
2017-03-22T03:12:34.709Z,0
2017-03-22T03:13:34.351Z,0
2017-03-22T03:14:34.636Z,0
2017-03-22T03:15:34.576Z,0
2017-03-22T03:16:34.878Z,0
2017-03-22T03:17:34.554Z,0
2017-03-22T03:18:34.218Z,0
2017-03-22T03:19:34.507Z,0
2017-03-22T03:20:34.466Z,0
2017-03-22T03:21:34.437Z,0
2017-03-22T03:22:34.524Z,0
2017-03-22T03:23:34.396Z,0
2017-03-22T03:24:33.746Z,0
2017-03-22T03:25:34.644Z,0
2017-03-22T03:26:34.296Z,0
2017-03-22T03:27:34.298Z,0
2017-03-22T03:28:34.260Z,0
2017-03-22T03:29:34.239Z,0
2017-03-22T03:30:34.227Z,0
2017-03-22T03:31:34.542Z,0
2017-03-22T03:32:34.187Z,0
2017-03-22T03:33:33.846Z,0
2017-03-22T03:34:34.426Z,0
2017-03-22T03:35:34.076Z,0
2017-03-22T03:36:33.777Z,0
2017-03-22T03:37:34.371Z,0
2017-03-22T03:38:34.039Z,0
2017-03-22T03:39:33.996Z,0
2017-03-22T03:40:34.343Z,0
2017-03-22T03:41:34.243Z,0
2017-03-22T03:42:33.939Z,0
2017-03-22T03:43:33.597Z,0
2017-03-22T03:44:33.574Z,0
2017-03-22T03:45:34.288Z,0
2017-03-22T03:46:33.598Z,0
2017-03-22T03:47:33.507Z,0
2017-03-22T03:48:33.477Z,0
2017-03-22T03:49:33.444Z,0
2017-03-22T03:50:33.717Z,0
2017-03-22T03:51:34.010Z,0
2017-03-22T03:52:33.987Z,0
2017-03-22T03:53:33.660Z,0
2017-03-22T03:54:33.418Z,0
2017-03-22T03:55:33.596Z,0
2017-03-22T03:56:33.565Z,0
2017-03-22T03:57:33.247Z,0
2017-03-22T03:58:33.852Z,0
2017-03-22T03:59:33.501Z,0
2017-03-22T04:00:33.469Z,0
2017-03-22T04:01:33.767Z,0
2017-03-22T04:02:33.758Z,0
2017-03-22T04:03:33.437Z,0
2017-03-22T04:04:33.150Z,0
2017-03-22T04:05:33.374Z,0
2017-03-22T04:06:33.647Z,0
2017-03-22T04:07:33.324Z,0
2017-03-22T04:08:32.977Z,0
2017-03-22T04:09:33.312Z,0
2017-03-22T04:10:33.318Z,0
2017-03-22T04:11:32.911Z,0
2017-03-22T04:12:33.279Z,0
2017-03-22T04:13:33.478Z,0
2017-03-22T04:14:33.457Z,0
2017-03-22T04:15:33.195Z,0
2017-03-22T04:16:33.078Z,0
2017-03-22T04:17:32.814Z,0
2017-03-22T04:18:33.053Z,0
2017-03-22T04:19:33.352Z,0
2017-03-22T04:20:33.282Z,0
2017-03-22T04:21:32.717Z,0
2017-03-22T04:22:33.232Z,0
2017-03-22T04:23:32.927Z,0
2017-03-22T04:24:33.215Z,0
2017-03-22T04:25:32.558Z,0
2017-03-22T04:26:32.846Z,0
2017-03-22T04:27:33.118Z,0
2017-03-22T04:28:32.787Z,0
2017-03-22T04:29:32.768Z,0
2017-03-22T04:30:32.736Z,0
2017-03-22T04:31:32.718Z,0
2017-03-22T04:32:33.007Z,0
2017-03-22T04:33:33.058Z,0
2017-03-22T04:34:32.958Z,0
2017-03-22T04:35:32.927Z,0
2017-03-22T04:36:32.887Z,0
2017-03-22T04:37:32.558Z,0
2017-03-22T04:38:32.572Z,0
2017-03-22T04:39:32.226Z,0
2017-03-22T04:40:32.480Z,0
2017-03-22T04:41:32.157Z,0
2017-03-22T04:42:32.757Z,0
2017-03-22T04:43:32.728Z,0
2017-03-22T04:44:32.397Z,0
2017-03-22T04:45:32.056Z,0
2017-03-22T04:46:32.666Z,0
2017-03-22T04:47:32.627Z,0
2017-03-22T04:48:32.676Z,0
2017-03-22T04:49:32.577Z,0
2017-03-22T04:50:32.551Z,0
2017-03-22T04:51:31.896Z,0
2017-03-22T04:52:32.201Z,0
2017-03-22T04:53:32.478Z,0
2017-03-22T04:54:32.162Z,0
2017-03-22T04:55:32.460Z,0
2017-03-22T04:56:32.507Z,0
2017-03-22T04:57:32.448Z,4
2017-03-22T04:58:32.381Z,4
2017-03-22T04:59:32.398Z,0
2017-03-22T05:00:32.297Z,4
2017-03-22T05:01:32.055Z,4
2017-03-22T05:02:32.255Z,4
2017-03-22T05:03:32.268Z,8
2017-03-22T05:04:31.897Z,8
2017-03-22T05:05:31.868Z,8
2017-03-22T05:06:31.837Z,8
2017-03-22T05:07:31.828Z,12
2017-03-22T05:08:32.107Z,16
2017-03-22T05:09:32.188Z,16
2017-03-22T05:10:32.047Z,20
2017-03-22T05:11:31.717Z,20
2017-03-22T05:12:31.697Z,24
2017-03-22T05:13:31.978Z,32
2017-03-22T05:14:31.648Z,36
2017-03-22T05:15:31.948Z,40
2017-03-22T05:16:31.976Z,44
2017-03-22T05:17:31.866Z,52
2017-03-22T05:18:31.577Z,60
2017-03-22T05:19:31.258Z,64
2017-03-22T05:20:31.233Z,72
2017-03-22T05:21:31.784Z,80
2017-03-22T05:22:31.764Z,88
2017-03-22T05:23:31.759Z,100
2017-03-22T05:24:31.084Z,108
2017-03-22T05:25:31.364Z,120
2017-03-22T05:26:31.349Z,132
2017-03-22T05:27:31.367Z,144
2017-03-22T05:28:31.607Z,156
2017-03-22T05:29:31.566Z,168
2017-03-22T05:30:31.278Z,184
2017-03-22T05:31:31.214Z,196
2017-03-22T05:32:31.190Z,208
2017-03-22T05:33:31.537Z,228
2017-03-22T05:34:30.511Z,244
2017-03-22T05:35:31.407Z,264
2017-03-22T05:36:31.387Z,280
2017-03-22T05:37:31.095Z,300
2017-03-22T05:38:31.120Z,320
2017-03-22T05:39:31.060Z,340
2017-03-22T05:40:31.287Z,364
2017-03-22T05:41:31.267Z,388
2017-03-22T05:42:31.259Z,412
2017-03-22T05:43:31.258Z,440
2017-03-22T05:44:30.976Z,468
2017-03-22T05:45:30.886Z,492
2017-03-22T05:46:31.146Z,524
2017-03-22T05:47:30.507Z,552
2017-03-22T05:48:31.094Z,584
2017-03-22T05:49:31.098Z,608
2017-03-22T05:50:30.725Z,640
2017-03-22T05:51:30.715Z,672
2017-03-22T05:52:30.698Z,712
2017-03-22T05:53:30.376Z,748
2017-03-22T05:54:30.656Z,780
2017-03-22T05:55:30.982Z,812
2017-03-22T05:56:30.904Z,852
2017-03-22T05:57:30.568Z,912
2017-03-22T05:58:30.537Z,968
2017-03-22T05:59:30.869Z,1020
2017-03-22T06:00:29.878Z,1116
2017-03-22T06:01:30.455Z,1256
2017-03-22T06:02:30.805Z,1320
2017-03-22T06:03:30.766Z,1328
2017-03-22T06:04:30.396Z,1372
2017-03-22T06:05:30.377Z,1492
2017-03-22T06:06:30.666Z,1520
2017-03-22T06:07:30.642Z,1544
2017-03-22T06:08:30.636Z,1688
2017-03-22T06:09:30.677Z,1792
2017-03-22T06:10:30.228Z,1836
2017-03-22T06:11:30.555Z,1884
2017-03-22T06:12:30.627Z,1948
2017-03-22T06:13:30.168Z,2036
2017-03-22T06:14:30.537Z,2140
2017-03-22T06:15:30.106Z,2164
2017-03-22T06:16:30.232Z,2180
2017-03-22T06:17:30.065Z,2212
2017-03-22T06:18:30.446Z,2240
2017-03-22T06:19:30.324Z,2284
2017-03-22T06:20:30.296Z,2372
2017-03-22T06:21:30.257Z,2416
2017-03-22T06:22:29.717Z,2460
2017-03-22T06:23:30.215Z,2480
2017-03-22T06:24:30.286Z,2544
2017-03-22T06:25:30.176Z,2600
2017-03-22T06:26:30.267Z,2684
2017-03-22T06:27:30.127Z,2744
2017-03-22T06:28:29.807Z,2796
2017-03-22T06:29:29.776Z,2872
2017-03-22T06:30:30.078Z,2920
2017-03-22T06:31:30.067Z,2988
2017-03-22T06:32:30.026Z,3052
2017-03-22T06:33:29.975Z,3172
2017-03-22T06:34:29.655Z,3232
2017-03-22T06:35:29.985Z,3368
2017-03-22T06:36:30.004Z,3332
2017-03-22T06:37:29.866Z,3340
2017-03-22T06:38:29.632Z,3400
2017-03-22T06:39:29.907Z,3476
2017-03-22T06:40:29.795Z,3496
2017-03-22T06:41:29.267Z,3712
2017-03-22T06:42:29.762Z,3900
2017-03-22T06:43:29.726Z,4024
2017-03-22T06:44:29.698Z,4112
2017-03-22T06:45:29.667Z,4184
2017-03-22T06:46:29.759Z,4388
2017-03-22T06:47:29.354Z,4572
2017-03-22T06:48:29.318Z,4788
2017-03-22T06:49:29.586Z,4764
2017-03-22T06:50:29.555Z,4816
2017-03-22T06:51:29.030Z,4980
2017-03-22T06:52:29.515Z,5008
2017-03-22T06:53:29.509Z,5088
2017-03-22T06:54:29.175Z,5212
2017-03-22T06:55:29.127Z,5300
2017-03-22T06:56:29.095Z,5432
2017-03-22T06:57:30.554Z,6064
2017-03-22T06:58:29.395Z,6156
2017-03-22T06:59:29.351Z,6452
2017-03-22T07:00:29.015Z,6876
2017-03-22T07:01:29.284Z,9236
2017-03-22T07:02:29.284Z,37632
2017-03-22T07:03:29.252Z,53056
2017-03-22T07:04:29.235Z,46720
2017-03-22T07:05:28.985Z,45536
2017-03-22T07:06:29.156Z,48832
2017-03-22T07:07:29.186Z,48672
2017-03-22T07:08:28.810Z,39072
2017-03-22T07:09:28.815Z,50144
2017-03-22T07:10:28.774Z,52352
2017-03-22T07:11:28.864Z,49600
2017-03-22T07:12:28.427Z,52384
2017-03-22T07:13:28.705Z,47648
2017-03-22T07:14:28.995Z,51968
2017-03-22T07:15:28.702Z,53248
2017-03-22T07:16:28.935Z,49472
2017-03-22T07:17:28.640Z,48672
2017-03-22T07:18:28.615Z,53024
2017-03-22T07:19:28.908Z,59200
2017-03-22T07:20:28.859Z,67808
2017-03-22T07:21:28.846Z,75168
2017-03-22T07:22:28.824Z,72288
2017-03-22T07:23:28.195Z,48832
2017-03-22T07:24:28.796Z,20608
2017-03-22T07:25:28.469Z,8980
2017-03-22T07:26:28.121Z,8052
2017-03-22T07:27:28.395Z,7936
2017-03-22T07:28:28.417Z,7964
2017-03-22T07:29:28.365Z,8044
2017-03-22T07:30:28.706Z,8152
2017-03-22T07:31:28.625Z,8244
2017-03-22T07:32:28.647Z,8340
2017-03-22T07:33:27.996Z,8472
2017-03-22T07:34:28.272Z,8588
2017-03-22T07:35:27.944Z,8728
2017-03-22T07:36:28.235Z,8820
2017-03-22T07:37:27.934Z,8912
2017-03-22T07:38:28.515Z,8960
2017-03-22T07:39:28.522Z,9204
2017-03-22T07:40:28.465Z,9296
2017-03-22T07:41:28.505Z,9628
2017-03-22T07:42:28.125Z,9776
2017-03-22T07:43:28.196Z,9752
2017-03-22T07:44:28.436Z,9804
2017-03-22T07:45:28.365Z,9788
2017-03-22T07:46:27.775Z,9888
2017-03-22T07:47:28.043Z,9892
2017-03-22T07:48:28.012Z,9784
2017-03-22T07:49:28.303Z,10056
2017-03-22T07:50:28.301Z,10408
2017-03-22T07:51:27.966Z,11540
2017-03-22T07:52:27.645Z,27104
2017-03-22T07:53:28.256Z,53344
2017-03-22T07:54:28.245Z,72320
2017-03-22T07:55:28.223Z,75968
2017-03-22T07:56:27.895Z,81952
2017-03-22T07:57:27.593Z,83616
2017-03-22T07:58:28.186Z,66144
2017-03-22T07:59:28.186Z,60608
2017-03-22T08:00:28.137Z,63552
2017-03-22T08:01:28.128Z,71616
2017-03-22T08:02:27.503Z,77856
2017-03-22T08:03:28.122Z,76960
2017-03-22T08:04:27.904Z,75552
2017-03-22T08:05:27.816Z,76928
2017-03-22T08:06:28.073Z,80064
2017-03-22T08:07:27.798Z,76352
2017-03-22T08:08:27.748Z,75456
2017-03-22T08:09:27.446Z,79392
2017-03-22T08:10:28.046Z,82752
2017-03-22T08:11:28.016Z,80320
2017-03-22T08:12:27.726Z,84704
2017-03-22T08:13:27.389Z,86176
2017-03-22T08:14:27.724Z,84768
2017-03-22T08:15:27.984Z,77664
2017-03-22T08:16:27.694Z,76224
2017-03-22T08:17:27.991Z,87136
2017-03-22T08:18:27.347Z,90752
2017-03-22T08:19:27.741Z,79456
2017-03-22T08:20:28.005Z,75328
2017-03-22T08:21:27.347Z,83488
2017-03-22T08:22:27.634Z,88352
2017-03-22T08:23:27.928Z,87552
2017-03-22T08:24:27.685Z,90656
2017-03-22T08:25:27.984Z,86656
2017-03-22T08:26:27.306Z,84992
2017-03-22T08:27:27.915Z,90880
2017-03-22T08:28:27.935Z,89312
2017-03-22T08:29:27.625Z,78272
2017-03-22T08:30:27.882Z,81280
2017-03-22T08:31:27.971Z,90016
2017-03-22T08:32:27.613Z,88288
2017-03-22T08:33:27.937Z,81216
2017-03-22T08:34:27.536Z,83712
2017-03-22T08:35:27.536Z,88256
2017-03-22T08:36:27.844Z,83168
2017-03-22T08:37:27.835Z,83872
2017-03-22T08:38:27.824Z,89248
2017-03-22T08:39:27.805Z,88096
2017-03-22T08:40:27.826Z,83968
2017-03-22T08:41:27.814Z,81984
2017-03-22T08:42:27.824Z,82400
2017-03-22T08:43:27.793Z,86336
2017-03-22T08:44:27.176Z,85152
2017-03-22T08:45:27.274Z,76896
2017-03-22T08:46:27.156Z,77120
2017-03-22T08:47:27.524Z,84288
2017-03-22T08:48:27.492Z,81120
2017-03-22T08:49:27.133Z,72288
2017-03-22T08:50:27.149Z,82528
2017-03-22T08:51:27.442Z,86816
2017-03-22T08:52:27.751Z,76320
2017-03-22T08:53:27.446Z,75872
2017-03-22T08:54:27.811Z,83968
2017-03-22T08:55:27.713Z,85184
2017-03-22T08:56:27.571Z,82880
2017-03-22T08:57:27.433Z,83712
2017-03-22T08:58:27.415Z,81504
2017-03-22T08:59:27.537Z,79264
2017-03-22T09:00:27.808Z,82656
2017-03-22T09:01:27.458Z,86848
2017-03-22T09:02:27.712Z,85984
2017-03-22T09:03:27.845Z,85920
2017-03-22T09:04:27.457Z,80032
2017-03-22T09:05:27.700Z,81152
2017-03-22T09:06:27.387Z,81920
2017-03-22T09:07:27.745Z,79616
2017-03-22T09:08:27.065Z,77664
2017-03-22T09:09:27.673Z,76800
2017-03-22T09:10:27.677Z,78240
2017-03-22T09:11:27.401Z,78496
2017-03-22T09:12:27.376Z,77760
2017-03-22T09:13:27.437Z,79264
2017-03-22T09:14:27.365Z,80000
2017-03-22T09:15:27.375Z,82560
2017-03-22T09:16:27.468Z,77056
2017-03-22T09:17:27.745Z,75424
2017-03-22T09:18:27.643Z,77728
2017-03-22T09:19:27.655Z,75360
2017-03-22T09:20:27.636Z,68032
2017-03-22T09:21:27.333Z,70496
2017-03-22T09:22:27.325Z,72416
2017-03-22T09:23:27.677Z,70592
2017-03-22T09:24:27.605Z,74112
2017-03-22T09:25:27.632Z,73728
2017-03-22T09:26:27.432Z,80096
2017-03-22T09:27:27.605Z,74976
2017-03-22T09:28:27.701Z,74528
2017-03-22T09:29:27.633Z,72384
2017-03-22T09:30:27.695Z,71552
2017-03-22T09:31:27.604Z,70304
2017-03-22T09:32:27.595Z,67872
2017-03-22T09:33:27.641Z,69440
2017-03-22T09:34:27.645Z,68896
2017-03-22T09:35:27.605Z,70080
2017-03-22T09:36:27.267Z,72896
2017-03-22T09:37:27.266Z,70464
2017-03-22T09:38:27.666Z,67776
2017-03-22T09:39:27.619Z,69152
2017-03-22T09:40:27.565Z,67296
2017-03-22T09:41:27.549Z,68064
2017-03-22T09:42:27.554Z,69696
2017-03-22T09:43:27.577Z,67424
2017-03-22T09:44:27.224Z,66176
2017-03-22T09:45:27.513Z,64256
2017-03-22T09:46:27.383Z,64096
2017-03-22T09:47:27.317Z,63776
2017-03-22T09:48:27.508Z,64128
2017-03-22T09:49:27.351Z,63712
2017-03-22T09:50:27.206Z,63392
2017-03-22T09:51:27.206Z,64160
2017-03-22T09:52:26.977Z,64640
2017-03-22T09:53:27.467Z,64992
2017-03-22T09:54:27.486Z,66464
2017-03-22T09:55:27.307Z,63200
2017-03-22T09:56:27.482Z,61184
2017-03-22T09:57:27.454Z,61568
2017-03-22T09:58:27.444Z,65152
2017-03-22T09:59:27.267Z,61696
2017-03-22T10:00:27.138Z,60480
2017-03-22T10:01:26.837Z,61184
2017-03-22T10:02:27.458Z,58176
2017-03-22T10:03:27.430Z,60736
2017-03-22T10:04:27.127Z,61696
2017-03-22T10:05:27.418Z,61952
2017-03-22T10:06:27.098Z,57088
2017-03-22T10:07:27.407Z,53984
2017-03-22T10:08:27.156Z,54720
2017-03-22T10:09:27.545Z,53632
2017-03-22T10:10:27.436Z,54880
2017-03-22T10:11:27.475Z,54784
2017-03-22T10:12:27.357Z,56960
2017-03-22T10:13:27.385Z,57600
2017-03-22T10:14:27.398Z,58624
2017-03-22T10:15:27.348Z,53216
2017-03-22T10:16:27.324Z,49248
2017-03-22T10:17:27.131Z,49888
2017-03-22T10:18:27.325Z,48640
2017-03-22T10:19:27.306Z,49984
2017-03-22T10:20:26.999Z,50720
2017-03-22T10:21:27.295Z,45696
2017-03-22T10:22:27.304Z,45728
2017-03-22T10:23:26.976Z,48288
2017-03-22T10:24:26.963Z,44608
2017-03-22T10:25:27.291Z,42912
2017-03-22T10:26:26.965Z,41888
2017-03-22T10:27:26.951Z,40512
2017-03-22T10:28:27.232Z,41472
2017-03-22T10:29:27.235Z,37024
2017-03-22T10:30:27.235Z,32128
2017-03-22T10:31:27.205Z,35968
2017-03-22T10:32:26.980Z,36608
2017-03-22T10:33:27.179Z,33696
2017-03-22T10:34:27.177Z,33312
2017-03-22T10:35:27.167Z,40288
2017-03-22T10:36:26.547Z,41856
2017-03-22T10:37:26.537Z,38464
2017-03-22T10:38:27.137Z,30976
2017-03-22T10:39:26.805Z,28416
2017-03-22T10:40:27.136Z,29280
2017-03-22T10:41:26.795Z,27424
2017-03-22T10:42:26.828Z,26144
2017-03-22T10:43:26.790Z,26528
2017-03-22T10:44:26.878Z,30048
2017-03-22T10:45:27.047Z,28800
2017-03-22T10:46:27.058Z,25824
2017-03-22T10:47:26.726Z,24384
2017-03-22T10:48:26.825Z,27456
2017-03-22T10:49:26.714Z,29408
2017-03-22T10:50:26.697Z,32864
2017-03-22T10:51:26.670Z,29600
2017-03-22T10:52:26.732Z,27008
2017-03-22T10:53:27.079Z,25248
2017-03-22T10:54:26.329Z,25728
2017-03-22T10:55:27.026Z,34944
2017-03-22T10:56:26.616Z,58272
2017-03-22T10:57:26.658Z,44032
2017-03-22T10:58:26.906Z,19904
2017-03-22T10:59:26.588Z,18240
2017-03-22T11:00:26.564Z,16896
2017-03-22T11:01:26.879Z,16832
2017-03-22T11:02:26.855Z,17952
2017-03-22T11:03:26.515Z,19552
2017-03-22T11:04:26.811Z,20096
2017-03-22T11:05:26.502Z,20416
2017-03-22T11:06:26.815Z,21824
2017-03-22T11:07:26.468Z,24352
2017-03-22T11:08:26.460Z,23424
2017-03-22T11:09:26.456Z,13316
2017-03-22T11:10:26.459Z,10168
2017-03-22T11:11:26.453Z,10148
2017-03-22T11:12:26.447Z,10296
2017-03-22T11:13:26.414Z,10380
2017-03-22T11:14:26.385Z,10564
2017-03-22T11:15:26.686Z,10728
2017-03-22T11:16:26.355Z,10928
2017-03-22T11:17:26.037Z,11036
2017-03-22T11:18:26.032Z,11180
2017-03-22T11:19:26.306Z,11388
2017-03-22T11:20:26.619Z,11624
2017-03-22T11:21:26.597Z,11924
2017-03-22T11:22:26.579Z,12208
2017-03-22T11:23:26.570Z,12480
2017-03-22T11:24:26.284Z,12736
2017-03-22T11:25:25.927Z,12984
2017-03-22T11:26:26.219Z,13268
2017-03-22T11:27:26.533Z,13520
2017-03-22T11:28:26.200Z,13768
2017-03-22T11:29:26.486Z,14268
2017-03-22T11:30:26.195Z,14612
2017-03-22T11:31:26.157Z,13972
2017-03-22T11:32:26.147Z,14280
2017-03-22T11:33:26.445Z,14444
2017-03-22T11:34:25.825Z,13096
2017-03-22T11:35:26.421Z,11416
2017-03-22T11:36:26.136Z,12296
2017-03-22T11:37:26.137Z,12368
2017-03-22T11:38:26.076Z,11972
2017-03-22T11:39:26.356Z,12188
2017-03-22T11:40:26.057Z,12292
2017-03-22T11:41:26.025Z,12244
2017-03-22T11:42:25.710Z,10936
2017-03-22T11:43:26.307Z,10568
2017-03-22T11:44:25.996Z,9812
2017-03-22T11:45:26.005Z,9324
2017-03-22T11:46:26.277Z,8992
2017-03-22T11:47:25.646Z,8352
2017-03-22T11:48:26.258Z,8020
2017-03-22T11:49:25.936Z,7708
2017-03-22T11:50:25.616Z,7516
2017-03-22T11:51:26.211Z,7080
2017-03-22T11:52:26.195Z,6672
2017-03-22T11:53:25.887Z,6360
2017-03-22T11:54:25.552Z,6228
2017-03-22T11:55:26.202Z,5912
2017-03-22T11:56:26.149Z,5792
2017-03-22T11:57:25.905Z,5572
2017-03-22T11:58:26.094Z,5388
2017-03-22T11:59:25.470Z,5340
2017-03-22T12:00:25.751Z,5344
2017-03-22T12:01:26.046Z,5348
2017-03-22T12:02:25.455Z,5324
2017-03-22T12:03:26.025Z,5284
2017-03-22T12:04:26.013Z,5328
2017-03-22T12:05:25.666Z,5380
2017-03-22T12:06:25.686Z,5328
2017-03-22T12:07:25.991Z,5304
2017-03-22T12:08:25.956Z,5336
2017-03-22T12:09:25.928Z,5336
2017-03-22T12:10:25.746Z,5380
2017-03-22T12:11:25.717Z,5496
2017-03-22T12:12:25.696Z,5568
2017-03-22T12:13:25.561Z,5488
2017-03-22T12:14:25.905Z,5480
2017-03-22T12:15:25.265Z,5624
2017-03-22T12:16:25.520Z,5904
2017-03-22T12:17:25.888Z,6244
2017-03-22T12:18:25.487Z,6568
2017-03-22T12:19:25.766Z,6808
2017-03-22T12:20:25.753Z,6944
2017-03-22T12:21:25.745Z,7132
2017-03-22T12:22:25.434Z,7300
2017-03-22T12:23:25.691Z,7512
2017-03-22T12:24:25.725Z,7628
2017-03-22T12:25:25.708Z,7608
2017-03-22T12:26:25.337Z,7492
2017-03-22T12:27:25.338Z,7404
2017-03-22T12:28:25.652Z,7304
2017-03-22T12:29:25.714Z,7316
2017-03-22T12:30:25.676Z,7472
2017-03-22T12:31:25.576Z,7700
2017-03-22T12:32:25.368Z,7984
2017-03-22T12:33:25.639Z,8392
2017-03-22T12:34:24.906Z,8696
2017-03-22T12:35:25.258Z,8896
2017-03-22T12:36:25.508Z,9208
2017-03-22T12:37:25.561Z,9288
2017-03-22T12:38:25.166Z,9352
2017-03-22T12:39:25.136Z,9228
2017-03-22T12:40:25.123Z,9144
2017-03-22T12:41:25.104Z,9308
2017-03-22T12:42:25.481Z,9024
2017-03-22T12:43:25.446Z,8916
2017-03-22T12:44:25.373Z,8736
2017-03-22T12:45:25.406Z,8636
2017-03-22T12:46:25.016Z,8664
2017-03-22T12:47:24.674Z,8452
2017-03-22T12:48:25.307Z,8756
2017-03-22T12:49:25.338Z,9672
2017-03-22T12:50:25.256Z,11244
2017-03-22T12:51:24.630Z,11548
2017-03-22T12:52:24.927Z,9220
2017-03-22T12:53:25.306Z,8336
2017-03-22T12:54:25.250Z,7652
2017-03-22T12:55:25.175Z,7144
2017-03-22T12:56:25.158Z,6956
2017-03-22T12:57:24.856Z,6652
2017-03-22T12:58:25.169Z,6548
2017-03-22T12:59:25.124Z,6548
2017-03-22T13:00:24.463Z,6480
2017-03-22T13:01:25.112Z,6664
2017-03-22T13:02:24.746Z,6920
2017-03-22T13:03:24.742Z,7112
2017-03-22T13:04:24.710Z,7040
2017-03-22T13:05:24.715Z,6952
2017-03-22T13:06:25.007Z,6748
2017-03-22T13:07:24.976Z,6636
2017-03-22T13:08:24.347Z,6588
2017-03-22T13:09:24.936Z,6664
2017-03-22T13:10:24.941Z,6680
2017-03-22T13:11:24.909Z,6716
2017-03-22T13:12:24.609Z,6732
2017-03-22T13:13:24.935Z,6668
2017-03-22T13:14:24.554Z,6628
2017-03-22T13:15:24.915Z,6628
2017-03-22T13:16:24.518Z,6656
2017-03-22T13:17:24.256Z,6668
2017-03-22T13:18:24.900Z,6672
2017-03-22T13:19:24.827Z,6692
2017-03-22T13:20:24.818Z,6680
2017-03-22T13:21:24.758Z,6744
2017-03-22T13:22:24.726Z,6768
2017-03-22T13:23:24.720Z,6852
2017-03-22T13:24:24.707Z,7056
2017-03-22T13:25:24.678Z,7340
2017-03-22T13:26:24.357Z,8000
2017-03-22T13:27:24.358Z,7976
2017-03-22T13:28:24.334Z,7900
2017-03-22T13:29:24.624Z,7752
2017-03-22T13:30:24.597Z,10460
2017-03-22T13:31:24.279Z,10812
2017-03-22T13:32:24.565Z,7556
2017-03-22T13:33:24.236Z,9108
2017-03-22T13:34:24.539Z,7032
2017-03-22T13:35:24.228Z,6652
2017-03-22T13:36:24.517Z,6564
2017-03-22T13:37:24.179Z,6648
2017-03-22T13:38:24.485Z,6196
2017-03-22T13:39:24.170Z,6076
2017-03-22T13:40:24.248Z,6536
2017-03-22T13:41:24.437Z,6148
2017-03-22T13:42:24.405Z,5624